X  Fechar Dados meteorológicos de METAR da aviação     EDDK Cologne Bonn Airport
Temperatura
72°F Temperatura
55°F Ponto de orvalho
57% Umidade



Vento
5 MPH
8 KM/H
2 M/S
4 NÓS



20°
NNL
Condições atuais

Limpo Limpo
Pressão 1018.96 (hPa) - 30.09 (inHg)
Visibilidade 6 (milha) - 9.7 (km)
Aeroporto
Código do aeroporto EDDK

Localização: Cologne Bonn Airport
Distância: 56 (mi)

Metar:
EDDK 231820Z AUTO 02004KT CAVOK 22/13 Q1019 NOSIG

Hora: 2024-06-23 20:20 CEST